Time;durP1;ratioP1;P1;durP2;ratioP2;P2;SDS_P1;SDS_P2;PMS_P1;PMS_P2;Temp;Humidity;BMP_temperature;BMP_pressure;BME280_temperature;BME280_humidity;BME280_pressure;Samples;Min_cycle;Max_cycle;Signal;HPM_P1;HPM_P2
2021/12/24 00:00:43;;;;;;;;;40.50;34.00;;;;;10.96;64.44;100624.41;4983679;28;45339;-48
2021/12/24 00:03:09;;;;;;;;;45.25;37.50;;;;;10.95;64.50;100618.25;4983532;28;45190;-47
2021/12/24 00:05:35;;;;;;;;;42.75;37.00;;;;;10.97;64.36;100603.31;4983475;28;45519;-48
2021/12/24 00:08:01;;;;;;;;;50.50;38.25;;;;;10.97;64.45;100594.56;4965571;28;48450;-47
2021/12/24 00:10:27;;;;;;;;;46.00;37.75;;;;;10.98;64.41;100588.41;4983448;28;45427;-49
2021/12/24 00:13:03;;;;;;;;;37.50;34.00;;;;;10.99;64.36;100592.78;4983391;28;45405;-52
2021/12/24 00:18:03;;;;;;;;;46.25;36.50;;;;;10.98;64.43;100602.44;4983583;28;45430;-48
2021/12/24 00:36:37;;;;;;;;;40.50;36.25;;;;;10.93;64.52;100592.88;4974534;28;45331;-48
2021/12/24 00:39:03;;;;;;;;;40.25;34.00;;;;;10.92;64.64;100592.03;4939316;28;47300;-49
2021/12/24 00:41:28;;;;;;;;;48.00;38.00;;;;;10.91;64.64;100585.03;4982918;28;45347;-50
2021/12/24 00:43:53;;;;;;;;;46.50;37.25;;;;;10.94;64.60;100584.97;4965555;28;45278;-50
2021/12/24 00:46:19;;;;;;;;;49.75;39.00;;;;;10.94;64.51;100574.44;4949264;28;45398;-47
2021/12/24 00:48:46;;;;;;;;;48.50;41.00;;;;;10.94;64.51;100566.56;4982773;28;46272;-45
2021/12/24 00:51:22;;;;;;;;;49.00;39.50;;;;;10.95;64.54;100570.94;4965338;28;45311;-46
2021/12/24 00:56:16;;;;;;;;;44.25;37.75;;;;;10.95;64.43;100555.16;4982661;28;45402;-49
2021/12/24 00:58:43;;;;;;;;;47.75;37.50;;;;;10.95;64.29;100552.53;4982704;28;46204;-49
2021/12/24 01:01:11;;;;;;;;;48.00;40.25;;;;;10.95;64.55;100552.53;4982637;28;45315;-47
2021/12/24 01:03:37;;;;;;;;;50.25;40.25;;;;;10.95;64.44;100546.41;4982980;28;45240;-50
2021/12/24 01:06:03;;;;;;;;;42.00;35.50;;;;;10.95;64.44;100549.03;4981117;28;45259;-50
2021/12/24 01:08:28;;;;;;;;;45.50;37.25;;;;;10.93;64.38;100535.03;4982573;28;45722;-51
2021/12/24 01:10:59;;;;;;;;;49.25;38.75;;;;;10.92;64.29;100530.69;4982346;28;45306;-51
2021/12/24 01:13:26;;;;;;;;;38.50;35.00;;;;;10.90;64.36;100520.19;4982742;28;45340;-49
2021/12/24 01:16:08;;;;;;;;;52.75;42.25;;;;;10.89;64.37;100513.19;4982504;28;45260;-48
2021/12/24 01:21:13;;;;;;;;;42.25;36.25;;;;;10.86;64.45;100519.38;4982362;28;45397;-48
2021/12/24 01:23:51;;;;;;;;;47.75;39.00;;;;;10.85;64.38;100512.38;4982307;28;45509;-46
2021/12/24 01:26:33;;;;;;;;;35.00;32.00;;;;;10.84;64.35;100518.56;4982411;28;45347;-47
2021/12/24 01:39:52;;;;;;;;;39.50;34.50;;;;;10.73;64.50;100533.66;4981887;28;45255;-47
2021/12/24 01:45:17;;;;;;;;;43.00;35.00;;;;;10.68;64.48;100525.00;4982086;28;45411;-49
2021/12/24 01:47:43;;;;;;;;;37.50;34.00;;;;;10.66;64.57;100516.28;4982081;28;45412;-50
2021/12/24 01:50:09;;;;;;;;;40.75;35.25;;;;;10.65;64.54;100517.16;4981853;28;46186;-50
2021/12/24 01:52:35;;;;;;;;;35.50;33.75;;;;;10.64;64.63;100521.56;4981838;28;45243;-49
2021/12/24 01:55:00;;;;;;;;;41.50;35.00;;;;;10.63;64.77;100516.31;4981957;28;45273;-48
2021/12/24 01:57:26;;;;;;;;;37.25;32.00;;;;;10.63;64.67;100521.56;4981922;28;45452;-51
2021/12/24 01:59:51;;;;;;;;;35.75;32.00;;;;;10.60;64.56;100521.63;4980320;28;48308;-50
2021/12/24 02:02:17;;;;;;;;;35.75;33.25;;;;;10.58;64.56;100526.91;4981775;28;45444;-50
2021/12/24 02:04:42;;;;;;;;;39.50;34.00;;;;;10.55;64.62;100535.72;4981849;28;45336;-48
2021/12/24 02:07:08;;;;;;;;;38.25;32.25;;;;;10.52;64.64;100532.28;4981581;28;45335;-51
2021/12/24 02:09:34;;;;;;;;;33.25;30.50;;;;;10.48;64.73;100535.88;4981368;28;45937;-50
2021/12/24 02:12:00;;;;;;;;;32.00;30.50;;;;;10.44;65.04;100536.78;4980385;28;45334;-49
2021/12/24 02:14:33;;;;;;;;;37.00;29.75;;;;;10.43;64.99;100537.69;4980318;28;45339;-50
2021/12/24 02:30:21;;;;;;;;;35.25;31.25;;;;;10.32;64.84;100498.44;4972924;28;45760;-46
2021/12/24 02:32:46;;;;;;;;;30.25;26.25;;;;;10.31;65.00;100499.31;4952574;28;45336;-47
2021/12/24 02:35:12;;;;;;;;;34.25;31.25;;;;;10.33;64.93;100502.81;4981220;28;45389;-45
2021/12/24 02:37:37;;;;;;;;;36.25;30.50;;;;;10.32;65.13;100499.28;4972195;28;45454;-45
2021/12/24 02:40:04;;;;;;;;;35.00;30.25;;;;;10.31;65.07;100494.94;4980955;28;45450;-49
2021/12/24 02:42:30;;;;;;;;;28.50;24.00;;;;;10.32;64.81;100491.41;4981283;28;45235;-48
2021/12/24 02:44:56;;;;;;;;;32.25;30.75;;;;;10.32;64.78;100491.41;4981114;28;45297;-46
2021/12/24 02:55:04;;;;;;;;;28.25;26.75;;;;;10.31;65.01;100487.03;4981016;28;45400;-47
2021/12/24 02:57:31;;;;;;;;;35.25;30.00;;;;;10.33;65.23;100492.31;4981045;28;45365;-46
2021/12/24 02:59:59;;;;;;;;;27.25;26.50;;;;;10.32;65.15;100486.16;4980705;28;46219;-46
2021/12/24 03:02:27;;;;;;;;;30.25;29.75;;;;;10.32;65.14;100483.53;4981001;28;45249;-48
2021/12/24 03:04:53;;;;;;;;;25.75;24.25;;;;;10.33;65.28;100489.69;4980757;28;45322;-48
2021/12/24 03:07:18;;;;;;;;;29.50;28.50;;;;;10.32;65.21;100488.78;4980585;28;45528;-48
2021/12/24 03:09:44;;;;;;;;;30.50;28.50;;;;;10.31;65.28;100492.31;4980445;28;45310;-45
2021/12/24 03:12:09;;;;;;;;;38.75;30.00;;;;;10.31;65.30;100483.56;4980761;28;45335;-48
2021/12/24 03:14:35;;;;;;;;;31.50;30.00;;;;;10.28;65.32;100486.25;4980806;28;45344;-47
2021/12/24 03:17:07;;;;;;;;;35.00;31.00;;;;;10.26;65.37;100486.25;4980697;28;45437;-47
2021/12/24 03:19:33;;;;;;;;;36.50;30.00;;;;;10.25;65.23;100488.03;4980453;28;46181;-50
2021/12/24 03:24:51;;;;;;;;;39.50;31.75;;;;;10.24;65.32;100486.28;4957344;28;45281;-47
2021/12/24 03:27:17;;;;;;;;;38.50;33.00;;;;;10.22;65.50;100474.94;4980437;28;45516;-47
2021/12/24 03:29:42;;;;;;;;;26.75;20.25;;;;;10.21;65.46;100474.97;4976650;28;46119;-46
2021/12/24 03:32:08;;;;;;;;;37.00;32.50;;;;;10.19;65.52;100472.38;4963583;28;45434;-49
2021/12/24 03:34:34;;;;;;;;;34.25;29.75;;;;;10.19;65.57;100466.28;4980763;28;45335;-48
2021/12/24 03:37:01;;;;;;;;;34.00;31.00;;;;;10.14;65.56;100455.84;4971148;28;45268;-46
2021/12/24 03:39:27;;;;;;;;;35.00;32.75;;;;;10.17;65.30;100452.28;4980208;28;46290;-48
2021/12/24 03:41:52;;;;;;;;;34.50;30.75;;;;;10.18;65.39;100448.78;4980229;28;45314;-49
2021/12/24 03:44:19;;;;;;;;;34.25;32.00;;;;;10.17;65.33;100455.78;4962912;28;45188;-48
2021/12/24 03:49:23;;;;;;;;;31.25;29.75;;;;;10.16;65.47;100456.69;4980288;28;46173;-50
2021/12/24 03:52:02;;;;;;;;;35.25;29.75;;;;;10.17;65.54;100453.16;4979926;28;45325;-46
2021/12/24 03:57:11;;;;;;;;;33.50;30.25;;;;;10.19;65.44;100468.91;4980254;28;45327;-47
2021/12/24 03:59:36;;;;;;;;;32.75;31.00;;;;;10.18;65.50;100454.03;4979836;28;45284;-46
2021/12/24 04:02:02;;;;;;;;;35.00;28.00;;;;;10.15;65.35;100439.19;4980347;28;45343;-47
2021/12/24 04:04:27;;;;;;;;;30.50;27.00;;;;;10.19;65.50;100437.38;4980310;28;45239;-48
2021/12/24 04:06:53;;;;;;;;;32.25;29.25;;;;;10.17;65.49;100433.91;4979962;28;45232;-51
2021/12/24 04:09:19;;;;;;;;;29.00;26.25;;;;;10.15;65.55;100428.69;4979768;28;45407;-48
2021/12/24 04:11:45;;;;;;;;;32.75;31.50;;;;;10.17;65.48;100421.63;4980034;28;45247;-48
2021/12/24 04:14:10;;;;;;;;;37.25;33.00;;;;;10.18;65.48;100423.38;4980072;28;45256;-46
2021/12/24 04:16:36;;;;;;;;;34.75;32.25;;;;;10.20;65.59;100426.84;4980055;28;45410;-46
2021/12/24 04:27:08;;;;;;;;;33.75;30.00;;;;;10.26;65.37;100417.97;4979746;28;45375;-47
2021/12/24 04:29:33;;;;;;;;;29.75;29.75;;;;;10.27;65.20;100411.00;4977857;28;46206;-51
2021/12/24 04:35:03;;;;;;;;;29.00;26.50;;;;;10.27;65.63;100401.34;4962798;28;45339;-47
2021/12/24 04:38:02;;;;;;;;;32.00;29.25;;;;;10.28;65.42;100402.22;4970786;28;45533;-47
2021/12/24 05:03:57;;;;;;;;;30.00;25.25;;;;;10.34;65.82;100373.19;4982635;28;45290;-48
2021/12/24 05:11:13;;;;;;;;;25.50;21.75;;;;;10.36;65.62;100380.19;4982538;28;45598;-49
2021/12/24 05:13:39;;;;;;;;;28.25;25.25;;;;;10.35;65.71;100372.28;4965081;28;45355;-47
2021/12/24 05:16:17;;;;;;;;;29.75;25.25;;;;;10.37;65.68;100378.44;4982640;28;45290;-47
2021/12/24 05:21:33;;;;;;;;;30.00;27.00;;;;;10.40;65.75;100376.63;4982226;28;45899;-45
2021/12/24 05:24:20;;;;;;;;;25.25;24.25;;;;;10.42;65.77;100367.84;4981981;28;45240;-49
2021/12/24 05:26:55;;;;;;;;;26.75;26.00;;;;;10.42;65.76;100368.69;4982307;28;45263;-49
2021/12/24 05:29:21;;;;;;;;;24.75;21.25;;;;;10.42;65.92;100366.06;4982060;28;45508;-49
2021/12/24 05:31:48;;;;;;;;;27.75;25.25;;;;;10.42;65.81;100371.31;4962431;28;46527;-50
2021/12/24 05:34:15;;;;;;;;;26.75;23.75;;;;;10.44;65.94;100364.28;4982337;28;45294;-50
2021/12/24 05:36:41;;;;;;;;;26.25;23.50;;;;;10.45;65.69;100352.00;4973370;28;45244;-46
2021/12/24 05:39:07;;;;;;;;;22.25;20.50;;;;;10.45;66.11;100357.25;4981861;28;45377;-46
2021/12/24 05:41:32;;;;;;;;;29.75;27.00;;;;;10.47;65.80;100366.00;4981832;28;45427;-49
2021/12/24 05:43:59;;;;;;;;;28.25;23.25;;;;;10.44;66.10;100359.03;4982186;28;45453;-49
2021/12/24 05:46:25;;;;;;;;;27.25;24.50;;;;;10.46;65.92;100361.63;4982022;28;45345;-50
2021/12/24 05:48:51;;;;;;;;;31.00;26.25;;;;;10.49;66.08;100356.28;4982057;28;45464;-49
2021/12/24 05:51:16;;;;;;;;;26.50;26.50;;;;;10.49;66.04;100358.91;4981551;28;45324;-48
2021/12/24 05:53:42;;;;;;;;;26.50;23.00;;;;;10.45;65.95;100352.00;4981370;28;45397;-50
2021/12/24 05:56:07;;;;;;;;;25.50;22.25;;;;;10.43;66.19;100367.81;4948351;28;45192;-50
2021/12/24 05:58:33;;;;;;;;;26.00;23.00;;;;;10.46;66.13;100374.75;4981977;28;45391;-49
2021/12/24 06:00:59;;;;;;;;;33.25;26.00;;;;;10.46;66.22;100372.97;4981777;28;45276;-46
2021/12/24 06:03:24;;;;;;;;;28.75;24.00;;;;;10.46;66.18;100372.97;4982031;28;45295;-50
2021/12/24 06:05:50;;;;;;;;;25.75;23.50;;;;;10.45;66.26;100370.41;4981783;28;45288;-50
2021/12/24 06:08:15;;;;;;;;;26.50;20.25;;;;;10.46;66.30;100369.50;4981589;28;45167;-47
2021/12/24 06:10:42;;;;;;;;;23.00;21.75;;;;;10.45;66.01;100363.38;4963736;28;46235;-46
2021/12/24 06:13:08;;;;;;;;;26.75;24.25;;;;;10.45;66.41;100371.25;4964105;28;45453;-47
2021/12/24 06:15:42;;;;;;;;;25.25;21.75;;;;;10.45;66.40;100371.25;4981615;28;45417;-47
2021/12/24 06:18:29;;;;;;;;;18.75;16.00;;;;;10.44;66.31;100373.91;4964270;28;45811;-45
2021/12/24 06:20:58;;;;;;;;;25.00;22.50;;;;;10.42;66.54;100373.09;4981264;28;45418;-47
2021/12/24 06:23:27;;;;;;;;;27.00;24.25;;;;;10.44;66.52;100371.28;4981240;28;45260;-46
2021/12/24 06:25:55;;;;;;;;;28.50;25.50;;;;;10.43;66.45;100373.06;4981206;28;45504;-47
2021/12/24 06:28:22;;;;;;;;;26.75;23.25;;;;;10.44;66.68;100368.66;4964207;28;45382;-47
2021/12/24 06:30:48;;;;;;;;;23.25;22.25;;;;;10.45;66.59;100373.03;4969144;28;47005;-47
2021/12/24 06:33:13;;;;;;;;;24.25;21.00;;;;;10.45;66.65;100367.78;4973740;28;45196;-49
2021/12/24 06:35:38;;;;;;;;;30.25;26.25;;;;;10.44;66.53;100366.03;4980552;28;45244;-48
2021/12/24 06:38:04;;;;;;;;;24.50;22.00;;;;;10.42;66.46;100357.34;4956135;28;45440;-50
2021/12/24 06:40:30;;;;;;;;;21.25;21.25;;;;;10.43;66.77;100359.03;4980922;28;46353;-48
2021/12/24 06:42:55;;;;;;;;;27.75;23.50;;;;;10.42;66.78;100352.09;4981394;28;45179;-47
2021/12/24 06:45:24;;;;;;;;;24.75;22.50;;;;;10.39;66.78;100353.84;4963531;28;45469;-46
2021/12/24 06:47:51;;;;;;;;;26.25;24.50;;;;;10.40;66.86;100354.72;4981154;28;45338;-48
2021/12/24 06:50:17;;;;;;;;;23.50;23.00;;;;;10.42;66.80;100362.59;4980714;28;45419;-48
2021/12/24 06:52:43;;;;;;;;;25.50;20.25;;;;;10.41;66.60;100359.06;4963253;28;45244;-46
2021/12/24 06:55:10;;;;;;;;;24.50;22.50;;;;;10.39;66.93;100359.13;4980938;28;45235;-48
2021/12/24 06:57:36;;;;;;;;;29.75;27.25;;;;;10.37;66.96;100355.63;4981085;28;45240;-47
2021/12/24 07:00:03;;;;;;;;;25.75;23.50;;;;;10.39;66.89;100356.50;4962968;28;47187;-46
2021/12/24 07:02:28;;;;;;;;;24.75;24.00;;;;;10.36;67.12;100358.31;4981027;28;45343;-47
2021/12/24 07:04:53;;;;;;;;;24.75;23.25;;;;;10.40;66.89;100365.22;4980610;28;45553;-47
2021/12/24 07:07:19;;;;;;;;;26.25;22.75;;;;;10.41;66.89;100361.72;4980695;28;45597;-48
2021/12/24 07:09:44;;;;;;;;;28.25;26.25;;;;;10.40;67.00;100362.59;4962792;28;47440;-47
2021/12/24 07:12:11;;;;;;;;;27.00;24.00;;;;;10.39;67.18;100361.75;4980855;28;45284;-47
2021/12/24 07:14:38;;;;;;;;;31.75;27.00;;;;;10.40;66.95;100354.72;4963239;28;45335;-50
2021/12/24 07:17:03;;;;;;;;;24.50;23.25;;;;;10.42;67.22;100358.19;4980604;28;45489;-50
2021/12/24 07:19:29;;;;;;;;;29.50;23.00;;;;;10.39;67.04;100356.50;4980350;28;45280;-47
2021/12/24 07:21:54;;;;;;;;;22.25;21.75;;;;;10.40;67.20;100355.59;4980433;28;45437;-50
2021/12/24 07:24:20;;;;;;;;;28.50;24.00;;;;;10.41;67.24;100356.44;4980606;28;45334;-49
2021/12/24 07:26:45;;;;;;;;;29.00;25.25;;;;;10.40;67.20;100354.72;4962933;28;45476;-50
2021/12/24 07:29:10;;;;;;;;;27.25;24.50;;;;;10.37;67.45;100360.91;4980394;28;45218;-47
2021/12/24 07:31:36;;;;;;;;;23.50;23.50;;;;;10.36;67.45;100353.94;4944964;28;45234;-48
2021/12/24 07:34:02;;;;;;;;;27.25;26.00;;;;;10.34;67.35;100347.81;4978184;28;45444;-48
2021/12/24 07:36:27;;;;;;;;;29.50;26.50;;;;;10.36;67.24;100343.44;4973173;28;45311;-47
2021/12/24 07:38:53;;;;;;;;;22.50;22.00;;;;;10.37;67.57;100339.88;4960993;28;47882;-50
2021/12/24 07:41:19;;;;;;;;;22.00;22.00;;;;;10.34;67.61;100337.31;4980446;28;45409;-48
2021/12/24 07:43:44;;;;;;;;;29.00;22.00;;;;;10.39;67.66;100342.50;4962840;28;45339;-51
2021/12/24 07:46:10;;;;;;;;;18.50;17.50;;;;;10.40;67.36;100344.22;4980358;28;45323;-46
2021/12/24 07:48:44;;;;;;;;;27.75;24.75;;;;;10.40;67.46;100339.84;4980098;28;46246;-49
2021/12/24 07:53:34;;;;;;;;;27.75;24.75;;;;;10.37;67.64;100334.63;4980049;28;45301;-48
2021/12/24 07:56:00;;;;;;;;;26.25;22.00;;;;;10.40;67.40;100334.59;4980074;28;45366;-49
2021/12/24 07:58:25;;;;;;;;;21.25;19.50;;;;;10.43;67.59;100338.03;4980038;28;45722;-48
2021/12/24 08:00:51;;;;;;;;;26.50;22.25;;;;;10.43;67.72;100344.16;4962691;28;45343;-49
2021/12/24 08:03:17;;;;;;;;;21.25;19.75;;;;;10.42;67.48;100334.53;4980180;28;45494;-48
2021/12/24 08:05:45;;;;;;;;;8.75;7.50;;;;;10.46;67.69;100348.50;4980086;28;45462;-48
2021/12/24 08:08:11;;;;;;;;;25.75;22.25;;;;;10.48;67.64;100341.47;4979709;28;45582;-47
2021/12/24 08:10:37;;;;;;;;;24.50;19.75;;;;;10.50;67.74;100345.78;4962381;28;45796;-48
2021/12/24 08:13:04;;;;;;;;;20.50;20.50;;;;;10.50;67.43;100339.63;4962594;28;45282;-46
2021/12/24 08:15:30;;;;;;;;;21.00;20.00;;;;;10.53;67.62;100339.59;4981069;28;45501;-49
2021/12/24 08:17:55;;;;;;;;;25.00;22.50;;;;;10.54;67.59;100336.03;4983147;28;46224;-48
2021/12/24 08:20:24;;;;;;;;;23.25;23.25;;;;;10.55;67.55;100332.53;4983376;28;45457;-48
2021/12/24 08:22:51;;;;;;;;;20.50;18.25;;;;;10.56;67.67;100331.63;4965652;28;45225;-51
2021/12/24 08:25:17;;;;;;;;;24.50;22.00;;;;;10.59;67.78;100331.59;4965677;28;45465;-49
2021/12/24 08:27:43;;;;;;;;;27.50;23.50;;;;;10.58;67.68;100327.22;4982988;28;45310;-47
2021/12/24 08:30:10;;;;;;;;;26.25;25.75;;;;;10.60;67.88;100320.16;4976217;28;45323;-46
2021/12/24 08:32:39;;;;;;;;;29.25;27.25;;;;;10.60;67.86;100324.56;4965762;28;45329;-47
2021/12/24 08:35:07;;;;;;;;;32.50;30.00;;;;;10.58;68.09;100316.72;4982985;28;45473;-48
2021/12/24 08:37:33;;;;;;;;;23.00;20.50;;;;;10.62;68.14;100323.63;4973852;28;45355;-49
2021/12/24 08:39:58;;;;;;;;;28.00;26.00;;;;;10.62;68.04;100318.38;4982826;28;45430;-48
2021/12/24 08:42:23;;;;;;;;;30.50;30.25;;;;;10.65;68.00;100314.81;4983424;28;45424;-47
2021/12/24 08:44:49;;;;;;;;;30.75;27.50;;;;;10.66;68.04;100317.41;4982948;28;45728;-49
2021/12/24 08:47:14;;;;;;;;;30.75;25.75;;;;;10.67;68.12;100324.41;4983016;28;45219;-48
2021/12/24 08:49:40;;;;;;;;;24.25;21.00;;;;;10.66;68.19;100316.53;4982786;28;45243;-50
2021/12/24 08:52:05;;;;;;;;;25.75;24.50;;;;;10.68;68.13;100318.25;4983083;28;45236;-46
2021/12/24 08:54:31;;;;;;;;;32.25;29.75;;;;;10.68;68.26;100318.25;4965224;28;45445;-48
2021/12/24 08:56:57;;;;;;;;;26.25;22.75;;;;;10.63;68.21;100299.09;4982646;28;46148;-49
2021/12/24 08:59:23;;;;;;;;;25.75;25.25;;;;;10.70;68.34;100310.31;4982765;28;45350;-46
2021/12/24 09:01:51;;;;;;;;;25.00;22.50;;;;;10.72;68.21;100313.78;4982676;28;45248;-44
2021/12/24 09:04:17;;;;;;;;;27.50;22.50;;;;;10.73;68.22;100316.38;4965164;28;45537;-50
2021/12/24 09:06:42;;;;;;;;;24.00;24.00;;;;;10.75;68.46;100312.84;4982240;28;46014;-48
2021/12/24 09:09:10;;;;;;;;;26.00;22.25;;;;;10.75;68.48;100313.72;4982550;28;45470;-47
2021/12/24 09:11:38;;;;;;;;;27.25;27.25;;;;;10.78;68.43;100318.91;4982707;28;45301;-49
2021/12/24 09:14:04;;;;;;;;;23.50;21.75;;;;;10.76;68.48;100315.44;4982526;28;45492;-47
2021/12/24 09:16:32;;;;;;;;;23.50;22.50;;;;;10.77;68.74;100313.66;4982407;28;46137;-50
2021/12/24 09:19:03;;;;;;;;;28.75;28.25;;;;;10.78;69.00;100315.41;4982288;28;45414;-50
2021/12/24 09:21:28;;;;;;;;;26.50;24.50;;;;;10.73;68.79;100312.91;4982479;28;45432;-50
2021/12/24 09:23:55;;;;;;;;;24.50;23.50;;;;;10.74;68.94;100317.22;4981959;28;45171;-52
2021/12/24 09:26:27;;;;;;;;;26.00;25.50;;;;;10.76;68.87;100320.69;4981545;28;45259;-48
2021/12/24 09:28:53;;;;;;;;;23.25;22.50;;;;;10.75;68.87;100312.84;4964316;28;45410;-48
2021/12/24 09:31:19;;;;;;;;;32.50;27.75;;;;;10.76;68.98;100314.59;4966152;28;45366;-50
2021/12/24 09:33:44;;;;;;;;;27.50;24.00;;;;;10.78;68.84;100318.91;4977238;28;46044;-47
2021/12/24 09:36:10;;;;;;;;;26.00;24.50;;;;;10.76;69.14;100314.59;4977324;28;46480;-47
2021/12/24 09:38:36;;;;;;;;;28.50;25.50;;;;;10.78;69.28;100316.28;4978353;28;45824;-50
2021/12/24 09:41:01;;;;;;;;;23.75;22.75;;;;;10.78;69.22;100308.41;4964569;28;45287;-50
2021/12/24 09:43:28;;;;;;;;;25.00;21.25;;;;;10.83;69.24;100316.16;4981926;28;45566;-48
2021/12/24 09:45:53;;;;;;;;;31.50;26.25;;;;;10.81;69.38;100300.44;4964519;28;48148;-51
2021/12/24 09:48:19;;;;;;;;;30.00;26.75;;;;;10.84;69.36;100291.63;4964244;28;45355;-47
2021/12/24 09:50:45;;;;;;;;;26.75;25.50;;;;;10.87;69.30;100296.81;4982194;28;45429;-50
2021/12/24 09:53:11;;;;;;;;;25.50;24.00;;;;;10.87;69.44;100305.56;4981619;28;45327;-49
2021/12/24 09:55:36;;;;;;;;;26.25;23.75;;;;;10.91;69.64;100313.41;4981625;28;46027;-51
2021/12/24 09:58:01;;;;;;;;;24.25;23.00;;;;;10.92;69.38;100310.72;4981694;28;45304;-47
2021/12/24 10:00:28;;;;;;;;;29.00;27.50;;;;;10.93;69.40;100301.94;4982055;28;45967;-49
2021/12/24 10:02:55;;;;;;;;;25.50;24.50;;;;;10.96;69.54;100315.00;4981827;28;45239;-50
2021/12/24 10:05:37;;;;;;;;;26.75;26.00;;;;;10.97;69.61;100315.84;4981585;28;45292;-46
2021/12/24 10:08:05;;;;;;;;;28.50;22.50;;;;;10.98;69.76;100307.06;4981360;28;45787;-49
2021/12/24 10:10:32;;;;;;;;;27.50;25.50;;;;;11.00;69.65;100298.25;4981639;28;45335;-49
2021/12/24 10:13:24;;;;;;;;;32.00;29.25;;;;;11.03;69.60;100290.31;4981588;28;45485;-49
2021/12/24 10:15:56;;;;;;;;;28.75;26.25;;;;;11.04;69.70;100289.41;4981191;28;46201;-47
2021/12/24 10:18:55;;;;;;;;;25.00;22.50;;;;;11.10;69.64;100283.13;4963886;28;45368;-49
2021/12/24 10:21:24;;;;;;;;;26.25;21.00;;;;;11.12;69.59;100280.47;4981377;28;45187;-51
2021/12/24 10:23:53;;;;;;;;;28.75;26.00;;;;;11.14;69.60;100278.66;4980743;28;45363;-47
2021/12/24 10:26:26;;;;;;;;;31.25;25.50;;;;;11.17;68.90;100270.69;4981268;28;45378;-48
2021/12/24 10:29:00;;;;;;;;;27.50;25.00;;;;;11.22;69.50;100266.22;4981022;28;46008;-48
2021/12/24 10:31:30;;;;;;;;;25.75;24.50;;;;;11.25;69.70;100258.22;4964273;28;45385;-49
2021/12/24 10:34:12;;;;;;;;;35.75;31.50;;;;;11.30;69.44;100263.38;4979042;28;45435;-48
2021/12/24 10:37:01;;;;;;;;;24.00;23.00;;;;;11.35;69.46;100266.75;4954436;28;46518;-50
2021/12/24 10:39:36;;;;;;;;;23.25;21.75;;;;;11.39;69.75;100268.41;4960648;28;45485;-47
2021/12/24 10:42:05;;;;;;;;;25.25;24.00;;;;;11.41;69.67;100265.72;4981206;28;45227;-50
2021/12/24 10:44:35;;;;;;;;;32.00;28.50;;;;;11.45;69.65;100270.03;4980991;28;45515;-50
2021/12/24 10:47:15;;;;;;;;;23.00;21.25;;;;;11.46;69.85;100263.84;4980848;28;45214;-50
2021/12/24 10:54:58;;;;;;;;;28.00;26.00;;;;;11.53;69.63;100261.03;4980733;28;45260;-48
2021/12/24 10:57:27;;;;;;;;;29.25;27.25;;;;;11.56;69.66;100244.31;4981042;28;45427;-47
2021/12/24 10:59:56;;;;;;;;;33.50;27.50;;;;;11.57;69.65;100240.75;4980732;28;45438;-50
2021/12/24 11:02:27;;;;;;;;;29.75;28.50;;;;;11.56;69.76;100239.06;4963419;28;45291;-47
2021/12/24 11:04:53;;;;;;;;;24.75;20.50;;;;;11.58;69.65;100239.00;4980815;28;45330;-48
2021/12/24 11:07:34;;;;;;;;;32.00;26.00;;;;;11.63;69.65;100234.47;4980455;28;46271;-47
2021/12/24 11:10:22;;;;;;;;;29.25;24.00;;;;;11.65;69.64;100238.78;4956523;28;45405;-49
2021/12/24 11:13:15;;;;;;;;;32.00;27.50;;;;;11.65;69.67;100236.16;4980576;28;45199;-51
2021/12/24 11:15:45;;;;;;;;;26.50;23.00;;;;;11.67;69.63;100231.72;4977239;28;45445;-48
2021/12/24 11:18:22;;;;;;;;;26.75;25.75;;;;;11.69;69.69;100216.75;4980506;28;46363;-46
2021/12/24 11:21:01;;;;;;;;;30.25;25.50;;;;;11.72;69.63;100200.00;4962953;28;46121;-48
2021/12/24 11:23:29;;;;;;;;;27.00;25.25;;;;;11.72;69.88;100192.09;4980422;28;45421;-50
2021/12/24 11:26:03;;;;;;;;;29.50;26.75;;;;;11.71;69.47;100180.72;4980166;28;45220;-49
2021/12/24 11:28:28;;;;;;;;;30.00;25.00;;;;;11.75;69.56;100193.78;4962767;28;47972;-49
2021/12/24 11:31:00;;;;;;;;;24.50;23.25;;;;;11.78;69.55;100191.09;4967571;28;45248;-48
2021/12/24 11:33:28;;;;;;;;;28.75;26.50;;;;;11.75;69.61;100191.16;4974396;28;45460;-51
2021/12/24 11:35:56;;;;;;;;;29.75;24.75;;;;;11.79;69.59;100183.13;4960296;28;45278;-46
2021/12/24 11:38:27;;;;;;;;;29.25;22.50;;;;;11.81;69.27;100183.09;4974531;28;46264;-48
2021/12/24 11:40:55;;;;;;;;;30.00;26.75;;;;;11.79;69.77;100179.66;4980288;28;45391;-48
2021/12/24 11:43:22;;;;;;;;;28.25;25.00;;;;;11.81;69.46;100176.06;4980164;28;45262;-48
2021/12/24 11:45:49;;;;;;;;;24.25;22.50;;;;;11.83;69.60;100174.25;4962872;28;45405;-47
2021/12/24 11:48:15;;;;;;;;;26.75;24.25;;;;;11.85;69.68;100176.84;4979914;28;45339;-47
2021/12/24 11:50:40;;;;;;;;;24.25;20.00;;;;;11.83;69.72;100174.25;4981477;28;45507;-50
2021/12/24 11:53:08;;;;;;;;;25.50;23.75;;;;;11.84;69.59;100169.84;4983608;28;45476;-48
2021/12/24 11:55:38;;;;;;;;;18.75;16.25;;;;;11.86;69.63;100168.03;4983821;28;45220;-48
2021/12/24 11:58:07;;;;;;;;;25.75;24.00;;;;;11.87;69.49;100164.50;4965680;28;46917;-47
2021/12/24 12:00:39;;;;;;;;;24.00;23.00;;;;;11.91;69.53;100168.78;4983531;28;45259;-49
2021/12/24 12:03:06;;;;;;;;;26.75;25.75;;;;;11.91;69.60;100166.16;4983391;28;45338;-47
2021/12/24 12:05:32;;;;;;;;;21.25;19.00;;;;;11.89;69.81;100178.47;4966097;28;45469;-46
2021/12/24 12:08:25;;;;;;;;;24.50;21.25;;;;;11.91;69.67;100181.94;4982915;28;47304;-51
2021/12/24 12:10:54;;;;;;;;;23.75;23.75;;;;;11.89;69.72;100182.91;4965571;28;45477;-46
2021/12/24 12:13:44;;;;;;;;;19.25;19.25;;;;;11.84;69.64;100183.00;4983459;28;45316;-48
2021/12/24 12:16:15;;;;;;;;;21.75;19.75;;;;;11.84;69.47;100181.22;4983214;28;45458;-49
2021/12/24 12:18:47;;;;;;;;;21.50;21.50;;;;;11.81;69.84;100175.19;4983241;28;46067;-47
2021/12/24 12:21:19;;;;;;;;;24.00;21.75;;;;;11.82;69.61;100169.03;4983144;28;45323;-50
2021/12/24 12:26:48;;;;;;;;;25.75;23.50;;;;;11.78;69.50;100173.50;4965655;28;45349;-51
2021/12/24 12:29:31;;;;;;;;;24.00;21.25;;;;;11.78;69.86;100181.41;4982787;28;46300;-49
2021/12/24 12:32:25;;;;;;;;;22.75;22.25;;;;;11.75;69.75;100183.25;4960153;28;45458;-49
2021/12/24 12:34:53;;;;;;;;;23.50;23.50;;;;;11.77;69.78;100182.31;4983143;28;45255;-50
2021/12/24 12:37:43;;;;;;;;;24.00;22.75;;;;;11.75;69.64;100175.34;4974081;28;45450;-49
2021/12/24 12:40:17;;;;;;;;;26.25;23.25;;;;;11.77;69.54;100168.28;4982635;28;46390;-51
2021/12/24 12:42:48;;;;;;;;;24.50;22.75;;;;;11.77;69.67;100168.28;4983007;28;45406;-51
2021/12/24 12:45:14;;;;;;;;;31.00;23.50;;;;;11.75;69.74;100157.81;4982584;28;45516;-51
2021/12/24 12:47:54;;;;;;;;;26.00;21.25;;;;;11.80;69.62;100162.97;4982907;28;45401;-48
2021/12/24 12:50:21;;;;;;;;;23.25;23.00;;;;;11.79;69.75;100163.88;4982543;28;45415;-51
2021/12/24 12:52:46;;;;;;;;;22.50;22.50;;;;;11.80;69.74;100161.19;4964856;28;45342;-50
2021/12/24 12:55:33;;;;;;;;;24.75;21.50;;;;;11.83;69.64;100154.97;4982895;28;45231;-49
2021/12/24 12:58:19;;;;;;;;;22.75;21.00;;;;;11.85;69.69;100154.00;4982523;28;45560;-52
2021/12/24 13:01:04;;;;;;;;;22.25;20.75;;;;;11.84;69.83;100143.53;4982338;28;45470;-52
2021/12/24 13:03:31;;;;;;;;;24.25;24.25;;;;;11.84;69.81;100143.53;4982592;28;45299;-49
2021/12/24 13:06:06;;;;;;;;;30.25;29.25;;;;;11.85;69.77;100137.38;4965164;28;45342;-50
2021/12/24 13:08:35;;;;;;;;;26.25;23.75;;;;;11.86;69.82;100141.69;4982182;28;45348;-49
2021/12/24 13:11:19;;;;;;;;;25.75;22.50;;;;;11.91;69.89;100133.66;4982267;28;46510;-48
2021/12/24 13:13:54;;;;;;;;;31.75;26.00;;;;;11.91;69.58;100139.81;4982473;28;45608;-49
2021/12/24 13:16:24;;;;;;;;;27.75;25.75;;;;;11.94;69.68;100138.88;4982689;28;45316;-49